< Typhoon 197815 1978 Season Typhoon 197817 >
Typhoon 197816 (GLORIA)
General InformationTrack Information on Google MapsDetailed Wind Information || Disaster Info.ResourceGoogle EarthGE AnimationAtom FeedGeoJSON
Detalied Best Track (Time Zone = UTC)
Year Month Day Hour Lat. Long. Pressure (hPa) Wind (kt) Class Image Chart
1978 8 27 18 19.5 129.5 1006 0 2 -- Chart
1978 8 28 00 20.0 130.0 1004 0 2 -- Chart
1978 8 28 06 20.5 130.2 1002 0 2 -- Chart
1978 8 28 12 20.9 130.0 1000 0 2 -- Chart
1978 8 28 18 21.0 129.8 1000 0 2 -- Chart
1978 8 29 00 21.0 129.5 1000 0 2 -- Chart
1978 8 29 06 21.5 128.3 998 0 2 -- Chart
1978 8 29 12 22.2 127.8 998 0 2 -- Chart
1978 8 29 18 23.1 128.4 996 35 3 -- Chart
1978 8 30 00 24.3 128.8 994 40 3 -- Chart
1978 8 30 06 25.6 129.3 992 40 3 -- Chart
1978 8 30 12 26.3 129.5 992 40 3 -- Chart
1978 8 30 18 27.0 129.8 992 40 3 -- Chart
1978 8 31 00 27.4 130.1 994 40 3 -- Chart
1978 8 31 06 27.9 130.3 996 0 2 -- Chart
1978 8 31 12 28.0 131.0 996 0 2 -- Chart
1978 8 31 18 28.0 132.0 996 0 2 -- Chart
1978 9 1 00 28.0 133.0 998 0 2 -- Chart
1978 9 1 06 28.0 133.9 998 0 2 -- Chart
1978 9 1 12 28.0 134.5 1000 0 2 -- Chart
1978 9 1 18 28.0 135.0 1000 0 2 -- Chart
1978 9 2 00 29.0 137.0 1000 0 2 -- Chart
Japan Meteorological Agency Best Track Data | Correction Date : 1992-10-21
< Typhoon 197815 1978 Season Typhoon 197817 >

Help